Time,TemperatureF,DewpointF,PressureIn,WindDirection,WindDirectionDegrees,WindSpeedMPH,WindSpeedGustMPH,Humidity,HourlyPrecipIn,Conditions,Clouds,dailyrainin,SoftwareType,DateUTC
2013-09-17 08:52:00,48.0,48.0,30.22,North,0,0.0,0.0,100,0.00,,,0.00,,2013-09-17 13:52:00,
2013-09-17 09:22:00,54.0,53.0,30.22,North,0,0.0,0.0,96,0.00,,,0.00,,2013-09-17 14:22:00,
2013-09-17 09:52:00,58.0,52.0,30.22,ENE,64,0.0,2.0,80,0.00,,,0.00,,2013-09-17 14:52:00,
2013-09-17 10:11:00,59.0,51.0,30.21,SSW,210,1.0,7.0,75,0.00,,,0.00,,2013-09-17 15:11:00,
2013-09-17 10:22:00,59.0,51.0,30.21,SSW,210,1.0,7.0,75,0.00,,,0.00,,2013-09-17 15:22:00,
2013-09-17 10:53:00,61.0,52.0,30.20,South,184,3.0,10.0,73,0.00,,,0.00,,2013-09-17 15:53:00,
2013-09-17 11:23:00,60.0,51.0,30.19,SSW,200,3.0,11.0,73,0.00,,,0.00,,2013-09-17 16:23:00,
2013-09-17 11:53:00,61.0,52.0,30.19,South,169,4.0,16.0,72,0.00,,,0.00,,2013-09-17 16:53:00,
2013-09-17 12:23:00,61.0,53.0,30.19,South,182,4.0,10.0,74,0.00,,,0.00,,2013-09-17 17:23:00,
2013-09-17 12:34:00,61.0,53.0,30.19,South,182,4.0,10.0,74,0.00,,,0.00,,2013-09-17 17:34:00,
2013-09-17 12:53:00,61.0,52.0,30.16,SSE,157,4.0,12.0,72,0.00,,,0.00,,2013-09-17 17:53:00,
2013-09-17 13:12:00,61.0,52.0,30.16,SSE,157,4.0,12.0,72,0.00,,,0.00,,2013-09-17 18:12:00,
2013-09-17 13:22:00,61.0,52.0,30.16,South,175,3.0,14.0,71,0.00,,,0.00,,2013-09-17 18:22:00,
2013-09-17 13:32:00,61.0,52.0,30.16,South,175,3.0,14.0,71,0.00,,,0.00,,2013-09-17 18:32:00,
2013-09-17 13:42:00,61.0,52.0,30.16,South,175,3.0,14.0,71,0.00,,,0.00,,2013-09-17 18:42:00,
2013-09-17 13:52:00,61.0,52.0,30.16,South,175,3.0,14.0,71,0.00,,,0.00,,2013-09-17 18:52:00,
2013-09-17 14:12:00,61.0,52.0,30.14,South,170,6.0,14.0,71,0.00,,,0.00,,2013-09-17 19:12:00,
2013-09-17 14:22:00,62.0,52.0,30.13,SSE,164,5.0,13.0,70,0.00,,,0.00,,2013-09-17 19:22:00,
2013-09-17 14:52:00,61.0,52.0,30.13,South,173,5.0,14.0,71,0.00,,,0.00,,2013-09-17 19:52:00,
2013-09-17 15:11:00,62.0,52.0,30.12,South,169,3.0,12.0,71,0.00,,,0.00,,2013-09-17 20:11:00,
2013-09-17 15:22:00,61.0,52.0,30.11,South,185,4.0,11.0,72,0.00,,,0.00,,2013-09-17 20:22:00,
2013-09-17 15:52:00,61.0,53.0,30.10,SSE,166,4.0,13.0,74,0.00,,,0.00,,2013-09-17 20:52:00,
2013-09-17 16:12:00,60.0,52.0,30.09,South,177,4.0,11.0,74,0.00,,,0.00,,2013-09-17 21:12:00,
2013-09-17 16:22:00,60.0,52.0,30.09,South,177,4.0,11.0,74,0.00,,,0.00,,2013-09-17 21:22:00,
2013-09-17 16:54:00,60.0,52.0,30.08,South,185,5.0,11.0,74,0.00,,,0.00,,2013-09-17 21:54:00,
2013-09-17 17:04:00,60.0,52.0,30.08,South,185,5.0,11.0,74,0.00,,,0.00,,2013-09-17 22:04:00,
2013-09-17 17:13:00,60.0,52.0,30.08,South,185,5.0,11.0,74,0.00,,,0.00,,2013-09-17 22:13:00,
2013-09-17 17:24:00,60.0,52.0,30.08,South,185,5.0,11.0,74,0.00,,,0.00,,2013-09-17 22:24:00,
2013-09-17 17:53:00,60.0,52.0,30.07,SSW,205,4.0,11.0,75,0.00,,,0.00,,2013-09-17 22:53:00,
2013-09-17 18:03:00,60.0,52.0,30.07,SSW,205,4.0,11.0,75,0.00,,,0.00,,2013-09-17 23:03:00,
2013-09-17 18:22:00,59.0,51.0,30.06,SSW,192,1.0,7.0,76,0.00,,,0.00,,2013-09-17 23:22:00,
2013-09-17 18:34:00,59.0,51.0,30.06,SSW,192,1.0,7.0,76,0.00,,,0.00,,2013-09-17 23:34:00,
2013-09-17 18:52:00,58.0,50.0,30.04,SSW,211,2.0,8.0,76,0.00,,,0.00,,2013-09-17 23:52:00,
2013-09-17 19:02:00,58.0,50.0,30.04,SSW,211,2.0,8.0,76,0.00,,,0.00,,2013-09-18 00:02:00,
2013-09-17 19:11:00,58.0,50.0,30.04,SSW,211,2.0,8.0,76,0.00,,,0.00,,2013-09-18 00:11:00,
2013-09-17 19:22:00,57.0,50.0,30.04,South,173,1.0,6.0,77,0.00,,,0.00,,2013-09-18 00:22:00,
2013-09-17 19:42:00,56.0,49.0,30.03,SE,144,0.0,3.0,76,0.00,,,0.00,,2013-09-18 00:42:00,
2013-09-17 19:52:00,56.0,49.0,30.03,SSW,199,0.0,4.0,78,0.00,,,0.00,,2013-09-18 00:52:00,
2013-09-17 20:01:00,56.0,49.0,30.03,SSW,199,0.0,4.0,78,0.00,,,0.00,,2013-09-18 01:01:00,
2013-09-17 20:11:00,56.0,49.0,30.03,SSW,199,0.0,4.0,78,0.00,,,0.00,,2013-09-18 01:11:00,
2013-09-17 20:22:00,56.0,50.0,30.03,SW,217,1.0,7.0,80,0.00,,,0.00,,2013-09-18 01:22:00,
2013-09-17 20:52:00,56.0,50.0,30.03,SSE,168,0.0,3.0,80,0.00,,,0.00,,2013-09-18 01:52:00,
2013-09-17 21:03:00,56.0,50.0,30.03,SSE,168,0.0,3.0,80,0.00,,,0.00,,2013-09-18 02:03:00,
2013-09-17 21:11:00,56.0,50.0,30.03,SSE,168,0.0,3.0,80,0.00,,,0.00,,2013-09-18 02:11:00,
2013-09-17 21:22:00,56.0,50.0,30.03,SSE,168,0.0,3.0,80,0.00,,,0.00,,2013-09-18 02:22:00,